Time;durP1;ratioP1;P1;durP2;ratioP2;P2;SDS_P1;SDS_P2;PMS_P1;PMS_P2;Temp;Humidity;BMP_temperature;BMP_pressure;BME280_temperature;BME280_humidity;BME280_pressure;Samples;Min_cycle;Max_cycle;Signal;HPM_P1;HPM_P2
2021/12/08 00:01:22;;;;;;;18.13;11.83;;;1.80;99.90;;;;;;5367235;22;20235;-92
2021/12/08 00:03:49;;;;;;;21.43;11.40;;;1.80;99.90;;;;;;5077112;28;20180;-93
2021/12/08 00:06:14;;;;;;;18.13;10.57;;;1.80;99.90;;;;;;5077089;28;20179;-93
2021/12/08 00:08:46;;;;;;;17.37;10.13;;;1.80;99.90;;;;;;5077293;28;20528;-93
2021/12/08 00:14:16;;;;;;;12.20;8.40;;;1.90;99.90;;;;;;5095227;28;20255;-93
2021/12/08 00:16:42;;;;;;;15.77;8.37;;;2.00;99.90;;;;;;5076714;28;20171;-94
2021/12/08 00:19:08;;;;;;;9.93;7.27;;;2.00;99.90;;;;;;5077005;28;20177;-94
2021/12/08 00:21:34;;;;;;;18.20;9.03;;;2.10;99.90;;;;;;5076580;28;20241;-93
2021/12/08 00:23:59;;;;;;;12.90;7.50;;;2.10;99.90;;;;;;5079146;28;20622;-93
2021/12/08 00:26:25;;;;;;;10.60;7.53;;;2.10;99.90;;;;;;5080489;28;20179;-93
2021/12/08 00:28:51;;;;;;;9.07;6.57;;;2.20;99.90;;;;;;5080258;28;20226;-94
2021/12/08 00:31:19;;;;;;;12.00;7.87;;;2.20;99.90;;;;;;5080431;28;20169;-94
2021/12/08 00:33:46;;;;;;;10.77;7.17;;;2.20;99.90;;;;;;5080384;28;20228;-94
2021/12/08 00:36:16;;;;;;;12.23;6.83;;;2.30;99.90;;;;;;5080444;28;20185;-94
2021/12/08 00:38:42;;;;;;;11.37;7.03;;;2.20;99.90;;;;;;5080192;28;20251;-94
2021/12/08 00:41:11;;;;;;;9.23;6.33;;;2.30;99.90;;;;;;5080260;28;20599;-93
2021/12/08 00:43:36;;;;;;;10.87;7.17;;;2.20;99.90;;;;;;5080487;28;20492;-94
2021/12/08 00:46:02;;;;;;;10.47;7.30;;;2.30;99.90;;;;;;5080061;28;20201;-94
2021/12/08 00:48:28;;;;;;;13.47;6.97;;;2.20;99.90;;;;;;5080449;28;20180;-94
2021/12/08 00:50:57;;;;;;;8.47;6.57;;;2.20;99.90;;;;;;5080319;28;20176;-94
2021/12/08 00:53:28;;;;;;;11.17;6.77;;;2.20;99.90;;;;;;5080077;28;20212;-93
2021/12/08 00:55:54;;;;;;;8.20;6.40;;;2.20;99.90;;;;;;5080454;28;20177;-93
2021/12/08 00:58:19;;;;;;;9.73;6.20;;;2.20;99.90;;;;;;5079885;28;20240;-93
2021/12/08 01:00:50;;;;;;;11.50;6.67;;;2.20;99.90;;;;;;5079554;28;20255;-93
2021/12/08 01:03:30;;;;;;;9.17;6.13;;;2.20;99.90;;;;;;5079847;28;20251;-94
2021/12/08 01:05:57;;;;;;;10.13;6.17;;;2.20;99.90;;;;;;5079700;28;20689;-93
2021/12/08 01:08:24;;;;;;;7.57;5.60;;;2.30;99.90;;;;;;5079639;28;20183;-93
2021/12/08 01:10:53;;;;;;;10.40;6.40;;;2.30;99.90;;;;;;5079647;28;20226;-94
2021/12/08 01:13:23;;;;;;;9.83;5.20;;;2.30;99.90;;;;;;5079467;28;20208;-94
2021/12/08 01:15:52;;;;;;;11.07;5.97;;;2.40;99.90;;;;;;5079503;28;20176;-95
2021/12/08 01:18:19;;;;;;;8.97;5.87;;;2.40;99.90;;;;;;5079421;28;20611;-93
2021/12/08 01:20:46;;;;;;;7.90;5.63;;;2.40;99.90;;;;;;5079320;28;20180;-93
2021/12/08 01:23:20;;;;;;;10.60;6.10;;;2.40;99.90;;;;;;5079503;28;20175;-94
2021/12/08 01:25:46;;;;;;;12.47;6.50;;;2.40;99.90;;;;;;5079389;28;20602;-94
2021/12/08 01:28:12;;;;;;;9.63;6.03;;;2.40;99.90;;;;;;5078969;28;20183;-93
2021/12/08 01:30:38;;;;;;;8.97;6.30;;;2.40;99.90;;;;;;5079330;28;20263;-94
2021/12/08 01:33:04;;;;;;;8.50;6.20;;;2.40;99.90;;;;;;5079231;28;20210;-93
2021/12/08 01:35:33;;;;;;;12.47;6.03;;;2.40;99.90;;;;;;5078521;28;20218;-93
2021/12/08 01:37:59;;;;;;;10.23;6.23;;;2.40;99.90;;;;;;5079034;28;20176;-93
2021/12/08 01:40:25;;;;;;;8.90;6.33;;;2.40;99.90;;;;;;5079146;28;20183;-93
2021/12/08 01:42:58;;;;;;;13.70;6.47;;;2.40;99.90;;;;;;5079311;28;20175;-93
2021/12/08 01:48:13;;;;;;;10.00;5.10;;;2.40;99.90;;;;;;5097265;28;20196;-92
2021/12/08 01:50:40;;;;;;;12.47;5.73;;;2.40;99.90;;;;;;5079108;28;20265;-94
2021/12/08 01:53:15;;;;;;;12.10;5.73;;;2.40;99.90;;;;;;5078976;28;20640;-94
2021/12/08 01:55:44;;;;;;;9.60;5.67;;;2.40;99.90;;;;;;5078777;28;20593;-94
2021/12/08 01:58:12;;;;;;;8.53;5.37;;;2.40;99.90;;;;;;5078969;28;20263;-94
2021/12/08 02:01:01;;;;;;;11.30;5.77;;;2.40;99.90;;;;;;5078292;28;20366;-93
2021/12/08 02:03:31;;;;;;;8.33;5.63;;;2.40;99.90;;;;;;5078938;28;20177;-93
2021/12/08 02:05:58;;;;;;;9.73;5.77;;;2.40;99.90;;;;;;5078605;28;20179;-93
2021/12/08 02:08:25;;;;;;;9.40;5.73;;;2.40;99.90;;;;;;5078360;28;20184;-94
2021/12/08 02:10:51;;;;;;;10.10;6.57;;;2.40;99.90;;;;;;5078459;28;20184;-93
2021/12/08 02:13:19;;;;;;;9.83;6.27;;;2.40;99.90;;;;;;5078447;28;20220;-94
2021/12/08 02:15:46;;;;;;;11.87;7.03;;;2.40;99.90;;;;;;5078239;28;20230;-94
2021/12/08 02:18:14;;;;;;;13.33;6.50;;;2.40;99.90;;;;;;5078549;28;20188;-93
2021/12/08 02:20:43;;;;;;;11.20;6.33;;;2.40;99.90;;;;;;5078084;28;20176;-94
2021/12/08 02:23:09;;;;;;;10.13;6.17;;;2.40;99.90;;;;;;5078066;28;20176;-93
2021/12/08 02:25:36;;;;;;;9.83;5.83;;;2.40;99.90;;;;;;5078342;28;20272;-94
2021/12/08 02:28:04;;;;;;;10.50;5.87;;;2.40;99.90;;;;;;5078121;28;20172;-93
2021/12/08 02:49:35;;;;;;;8.97;5.97;;;2.40;99.90;;;;;;5096188;28;20167;-94
2021/12/08 02:52:06;;;;;;;8.63;5.90;;;2.40;99.90;;;;;;5077869;28;20180;-93
2021/12/08 02:54:38;;;;;;;10.43;5.23;;;2.40;99.90;;;;;;5077674;28;20233;-94
2021/12/08 02:57:05;;;;;;;8.67;5.60;;;2.50;99.90;;;;;;5077617;28;20237;-95
2021/12/08 02:59:31;;;;;;;8.63;5.33;;;2.40;99.90;;;;;;5077817;28;20607;-94
2021/12/08 03:01:58;;;;;;;9.50;5.40;;;2.50;99.90;;;;;;5077350;28;20188;-94
2021/12/08 03:04:25;;;;;;;10.07;5.37;;;2.50;99.90;;;;;;5077528;28;20256;-94
2021/12/08 03:06:51;;;;;;;11.77;5.83;;;2.50;99.90;;;;;;5077491;28;20260;-93
2021/12/08 03:09:16;;;;;;;9.07;5.53;;;2.50;99.90;;;;;;5077437;28;20168;-94
2021/12/08 03:11:42;;;;;;;10.03;5.50;;;2.50;99.90;;;;;;5077489;28;20641;-93
2021/12/08 03:14:32;;;;;;;12.23;5.73;;;2.40;99.90;;;;;;5077612;28;20595;-95
2021/12/08 03:17:00;;;;;;;9.57;6.30;;;2.50;99.90;;;;;;5077284;28;20200;-95
2021/12/08 03:19:26;;;;;;;11.80;6.23;;;2.40;99.90;;;;;;5077578;28;20187;-94
2021/12/08 03:22:10;;;;;;;14.37;6.67;;;2.40;99.90;;;;;;5077658;28;20172;-93
2021/12/08 03:24:38;;;;;;;9.30;5.70;;;2.50;99.90;;;;;;5077936;28;20176;-94
2021/12/08 03:29:47;;;;;;;11.50;5.93;;;2.40;99.90;;;;;;5095508;28;20208;-94
2021/12/08 03:32:18;;;;;;;10.77;6.03;;;2.40;99.90;;;;;;5077111;28;20230;-95
2021/12/08 03:34:52;;;;;;;12.50;6.23;;;2.40;99.90;;;;;;5077699;28;20227;-93
2021/12/08 03:37:31;;;;;;;9.73;5.47;;;2.40;99.90;;;;;;5077134;28;20264;-94
2021/12/08 03:39:59;;;;;;;7.93;4.97;;;2.50;99.90;;;;;;5077209;28;20179;-95
2021/12/08 03:42:36;;;;;;;10.17;5.10;;;2.50;99.90;;;;;;5077076;28;20552;-93
2021/12/08 03:45:07;;;;;;;9.83;4.70;;;2.60;99.90;;;;;;5076719;28;20198;-95
2021/12/08 03:47:34;;;;;;;8.73;5.17;;;2.60;99.90;;;;;;5076777;28;20602;-94
2021/12/08 03:50:02;;;;;;;7.20;4.47;;;2.60;99.90;;;;;;5077134;28;20184;-94
2021/12/08 03:52:28;;;;;;;9.87;5.07;;;2.60;99.90;;;;;;5077004;28;20338;-93
2021/12/08 03:54:54;;;;;;;8.03;4.77;;;2.60;99.90;;;;;;5077426;28;20275;-94
2021/12/08 03:57:20;;;;;;;11.27;5.20;;;2.60;99.90;;;;;;5077278;28;20203;-94
2021/12/08 03:59:46;;;;;;;9.40;4.97;;;2.60;99.90;;;;;;5080553;28;20263;-94
2021/12/08 04:02:12;;;;;;;9.63;5.33;;;2.60;99.90;;;;;;5080913;28;20180;-94
2021/12/08 04:04:49;;;;;;;7.97;4.67;;;2.70;99.90;;;;;;5081353;28;20178;-95
2021/12/08 04:07:17;;;;;;;9.67;4.70;;;2.70;99.90;;;;;;5081041;28;20172;-94
2021/12/08 04:09:45;;;;;;;9.50;4.63;;;2.70;99.90;;;;;;5081110;28;20223;-95
2021/12/08 04:12:15;;;;;;;8.53;4.60;;;2.70;99.90;;;;;;5080855;28;20188;-95
2021/12/08 04:15:03;;;;;;;8.60;5.20;;;2.70;99.90;;;;;;5080673;28;20215;-94
2021/12/08 04:17:43;;;;;;;6.80;4.10;;;2.70;99.90;;;;;;5080408;28;20173;-93
2021/12/08 04:20:24;;;;;;;6.97;4.30;;;2.60;99.90;;;;;;5080891;28;20179;-95
2021/12/08 04:22:54;;;;;;;10.57;4.43;;;2.60;99.90;;;;;;5080836;28;20184;-93
2021/12/08 04:25:25;;;;;;;11.50;4.67;;;2.60;99.90;;;;;;5080777;28;20573;-95
2021/12/08 04:27:53;;;;;;;9.33;5.00;;;2.50;99.90;;;;;;5080482;28;20179;-94
2021/12/08 04:30:29;;;;;;;9.87;4.73;;;2.40;99.90;;;;;;5091490;28;20212;-94
2021/12/08 04:33:24;;;;;;;8.40;4.80;;;2.40;99.90;;;;;;5100823;28;20209;-93
2021/12/08 04:35:53;;;;;;;11.23;5.63;;;2.30;99.90;;;;;;5101041;28;20182;-94
2021/12/08 04:38:26;;;;;;;9.20;5.97;;;2.20;99.90;;;;;;5100745;28;20232;-95
2021/12/08 04:41:06;;;;;;;7.60;5.57;;;2.20;99.90;;;;;;5100597;28;20167;-93
2021/12/08 04:43:59;;;;;;;12.57;7.10;;;2.10;99.90;;;;;;5100556;28;20171;-93
2021/12/08 04:47:15;;;;;;;11.57;6.60;;;2.00;99.90;;;;;;5100260;28;20167;-95
2021/12/08 04:52:25;;;;;;;14.20;7.00;;;1.90;99.90;;;;;;5118537;28;20156;-94
2021/12/08 05:03:47;;;;;;;13.43;7.33;;;1.60;99.90;;;;;;5118389;28;20601;-93
2021/12/08 05:06:36;;;;;;;11.63;7.40;;;1.50;99.90;;;;;;5099346;28;20278;-95
2021/12/08 05:09:09;;;;;;;14.40;8.60;;;1.50;99.90;;;;;;5078982;28;20180;-93
2021/12/08 05:11:39;;;;;;;16.80;9.23;;;1.40;99.90;;;;;;5079387;28;20173;-93
2021/12/08 05:14:21;;;;;;;15.20;9.23;;;1.40;99.90;;;;;;5079921;28;20535;-93
2021/12/08 05:16:49;;;;;;;15.00;8.87;;;1.40;99.90;;;;;;5079320;28;20169;-93
2021/12/08 05:19:19;;;;;;;16.37;9.70;;;1.40;99.90;;;;;;5097597;28;20176;-92
2021/12/08 05:21:50;;;;;;;15.77;9.10;;;1.30;99.90;;;;;;5079497;28;20631;-94
2021/12/08 05:24:32;;;;;;;16.07;9.63;;;1.30;99.90;;;;;;5079534;28;20175;-93
2021/12/08 05:27:21;;;;;;;18.97;9.63;;;1.30;99.90;;;;;;5079581;28;20165;-94
2021/12/08 05:30:05;;;;;;;15.17;9.17;;;1.30;99.90;;;;;;5085177;28;20629;-93
2021/12/08 05:32:31;;;;;;;19.47;9.30;;;1.40;99.90;;;;;;5099138;28;20168;-93
2021/12/08 05:34:58;;;;;;;14.50;9.60;;;1.30;99.90;;;;;;5099471;28;20206;-94
2021/12/08 05:37:25;;;;;;;16.10;9.07;;;1.30;99.90;;;;;;5099566;28;20168;-93
2021/12/08 05:39:52;;;;;;;17.73;9.40;;;1.30;99.90;;;;;;5099660;28;20182;-93
2021/12/08 05:42:27;;;;;;;15.20;9.40;;;1.20;99.90;;;;;;5100351;28;20188;-93
2021/12/08 05:45:00;;;;;;;16.80;10.33;;;1.20;99.90;;;;;;5099361;28;20258;-92
2021/12/08 05:47:28;;;;;;;16.07;10.17;;;1.20;99.90;;;;;;5117348;28;20632;-93
2021/12/08 05:49:55;;;;;;;15.50;9.70;;;1.20;99.90;;;;;;5099012;28;20178;-92
2021/12/08 05:52:22;;;;;;;16.60;10.33;;;1.20;99.90;;;;;;5099350;28;20186;-94
2021/12/08 05:54:52;;;;;;;18.50;11.03;;;1.20;99.90;;;;;;5099129;28;20236;-92
2021/12/08 05:57:32;;;;;;;15.13;10.20;;;1.20;99.90;;;;;;5099153;28;20305;-93
2021/12/08 05:59:59;;;;;;;14.97;10.10;;;1.20;99.90;;;;;;5098448;28;20589;-91
2021/12/08 06:02:30;;;;;;;20.00;10.50;;;1.20;99.90;;;;;;5098727;28;20606;-93
2021/12/08 06:04:58;;;;;;;18.63;11.43;;;1.10;99.90;;;;;;5098945;28;20179;-92
2021/12/08 06:07:24;;;;;;;18.30;10.80;;;1.20;99.90;;;;;;5098909;28;20255;-93
2021/12/08 06:09:53;;;;;;;17.67;10.73;;;1.20;99.90;;;;;;5098916;28;20178;-92
2021/12/08 06:12:20;;;;;;;17.73;10.37;;;1.20;99.90;;;;;;5098660;28;20176;-92
2021/12/08 06:14:53;;;;;;;16.67;10.60;;;1.20;99.90;;;;;;5098837;28;20719;-92
2021/12/08 06:17:19;;;;;;;19.07;11.43;;;1.10;99.90;;;;;;5098624;28;20172;-92
2021/12/08 06:19:46;;;;;;;21.37;11.83;;;1.10;99.90;;;;;;5116843;28;20180;-93
2021/12/08 06:22:15;;;;;;;19.97;11.13;;;1.10;99.90;;;;;;5098489;28;20181;-92
2021/12/08 06:24:48;;;;;;;19.27;11.30;;;1.10;99.90;;;;;;5098549;28;20214;-92
2021/12/08 06:27:14;;;;;;;20.53;11.27;;;1.20;99.90;;;;;;5098413;28;20187;-92
2021/12/08 06:29:43;;;;;;;19.07;10.70;;;1.20;99.90;;;;;;5095097;28;20248;-91
2021/12/08 06:32:11;;;;;;;20.07;11.67;;;1.10;99.90;;;;;;5093118;28;20185;-92
2021/12/08 06:34:44;;;;;;;19.77;12.13;;;1.10;99.90;;;;;;5090053;28;20614;-92
2021/12/08 06:37:29;;;;;;;21.33;11.07;;;1.20;99.90;;;;;;5098010;28;20164;-93
2021/12/08 06:40:12;;;;;;;22.90;11.80;;;1.20;99.90;;;;;;5096671;28;20207;-92
2021/12/08 06:42:43;;;;;;;18.97;11.83;;;1.20;99.90;;;;;;5078144;28;20179;-91
2021/12/08 06:45:17;;;;;;;21.17;11.87;;;1.20;99.90;;;;;;5077881;28;20689;-90
2021/12/08 06:47:44;;;;;;;18.37;11.60;;;1.20;99.90;;;;;;5077601;28;20184;-91
2021/12/08 06:50:17;;;;;;;21.57;11.60;;;1.20;99.90;;;;;;5077906;28;20180;-90
2021/12/08 06:52:43;;;;;;;20.50;11.13;;;1.20;99.90;;;;;;5077824;28;20256;-91
2021/12/08 06:55:36;;;;;;;20.00;12.03;;;1.20;99.90;;;;;;5077662;28;20526;-92
2021/12/08 06:58:09;;;;;;;19.53;11.60;;;1.30;99.90;;;;;;5097587;28;20182;-93
2021/12/08 07:03:44;;;;;;;21.40;11.63;;;1.30;99.90;;;;;;5095483;28;20164;-91
2021/12/08 07:09:41;;;;;;;20.17;11.67;;;1.30;99.90;;;;;;5079354;28;20272;-92
2021/12/08 07:12:14;;;;;;;21.53;11.40;;;1.30;99.90;;;;;;5084345;28;20184;-91
2021/12/08 07:14:59;;;;;;;19.30;12.00;;;1.30;99.90;;;;;;5091197;28;20204;-93
2021/12/08 07:17:29;;;;;;;20.30;12.03;;;1.30;99.90;;;;;;5077465;28;20486;-92
2021/12/08 07:22:52;;;;;;;21.83;11.43;;;1.30;99.90;;;;;;5064376;28;20204;-91
2021/12/08 07:25:30;;;;;;;21.13;11.63;;;1.30;99.90;;;;;;5077521;28;20183;-92
2021/12/08 07:27:56;;;;;;;19.43;11.17;;;1.30;99.90;;;;;;5093197;28;20210;-90
2021/12/08 07:30:30;;;;;;;20.17;11.53;;;1.40;99.90;;;;;;5106636;28;20196;-90
2021/12/08 07:32:57;;;;;;;16.80;10.60;;;1.40;99.90;;;;;;5098124;28;20293;-89
2021/12/08 07:35:30;;;;;;;18.00;11.37;;;1.40;99.90;;;;;;5101821;28;20281;-93
2021/12/08 07:37:58;;;;;;;22.77;10.80;;;1.40;99.90;;;;;;5101292;28;20174;-93
2021/12/08 07:40:32;;;;;;;20.20;10.87;;;1.40;99.90;;;;;;5102631;28;20191;-92
2021/12/08 07:43:06;;;;;;;16.10;9.87;;;1.50;99.90;;;;;;5101854;28;20172;-93
2021/12/08 07:45:39;;;;;;;17.63;10.67;;;1.50;99.90;;;;;;5101238;28;20171;-94
2021/12/08 07:48:10;;;;;;;17.27;9.87;;;1.50;99.90;;;;;;5101825;28;20168;-91
2021/12/08 07:50:38;;;;;;;20.43;10.57;;;1.40;99.90;;;;;;5102177;28;20174;-93
2021/12/08 07:53:07;;;;;;;16.07;10.00;;;1.50;99.90;;;;;;5101241;28;20645;-94
2021/12/08 07:55:43;;;;;;;20.47;10.03;;;1.50;99.90;;;;;;5101750;28;20615;-93
2021/12/08 07:58:11;;;;;;;15.60;8.90;;;1.50;99.90;;;;;;5101157;28;20183;-94
2021/12/08 08:00:44;;;;;;;18.27;10.33;;;1.50;99.90;;;;;;5101061;28;20231;-92
2021/12/08 08:03:12;;;;;;;16.00;9.87;;;1.50;99.90;;;;;;5101099;28;20179;-91
2021/12/08 08:05:40;;;;;;;16.27;10.03;;;1.50;99.90;;;;;;5100709;28;20172;-92
2021/12/08 08:08:09;;;;;;;18.93;11.43;;;1.60;99.90;;;;;;5101475;28;20560;-92
2021/12/08 08:10:54;;;;;;;19.13;9.80;;;1.60;99.90;;;;;;5100726;28;20231;-95
2021/12/08 08:13:23;;;;;;;17.33;9.83;;;1.60;99.90;;;;;;5096276;28;20216;-92
2021/12/08 08:15:54;;;;;;;23.07;10.80;;;1.60;99.90;;;;;;5080475;28;20621;-93
2021/12/08 08:18:25;;;;;;;18.20;10.53;;;1.60;99.90;;;;;;5080196;28;20559;-91
2021/12/08 08:20:54;;;;;;;17.53;10.27;;;1.60;99.90;;;;;;5080453;28;20169;-90
2021/12/08 08:23:23;;;;;;;15.13;9.37;;;1.60;99.90;;;;;;5080571;28;20184;-90
2021/12/08 08:25:56;;;;;;;17.70;8.70;;;1.70;99.90;;;;;;5080612;28;20190;-91
2021/12/08 08:28:23;;;;;;;18.10;10.23;;;1.60;99.90;;;;;;5092153;28;20184;-90
2021/12/08 08:31:04;;;;;;;19.10;9.80;;;1.70;99.90;;;;;;5100701;28;20180;-89
2021/12/08 08:33:34;;;;;;;15.13;9.53;;;1.70;99.90;;;;;;5100322;28;20215;-95
2021/12/08 08:36:10;;;;;;;18.80;9.37;;;1.70;99.90;;;;;;5099773;28;20188;-90
2021/12/08 08:38:40;;;;;;;16.00;9.77;;;1.80;99.90;;;;;;5100457;28;20173;-91
2021/12/08 08:41:31;;;;;;;17.17;9.80;;;1.70;99.90;;;;;;5100080;28;20178;-91
2021/12/08 08:44:01;;;;;;;14.53;9.07;;;1.70;99.90;;;;;;5100269;28;20182;-89
2021/12/08 08:46:36;;;;;;;15.77;9.30;;;1.70;99.90;;;;;;5100813;28;20203;-90
2021/12/08 08:49:07;;;;;;;18.67;10.13;;;1.70;99.90;;;;;;5100361;28;20259;-90
2021/12/08 08:51:39;;;;;;;19.17;10.10;;;1.70;99.90;;;;;;5100265;28;20238;-90
2021/12/08 08:54:10;;;;;;;17.07;10.63;;;1.80;99.90;;;;;;5100520;28;20204;-90
2021/12/08 08:56:41;;;;;;;18.70;11.20;;;1.80;99.90;;;;;;5100531;28;20262;-93
2021/12/08 08:59:18;;;;;;;17.77;11.50;;;1.80;99.90;;;;;;5099849;28;20231;-90
2021/12/08 09:01:51;;;;;;;19.90;11.00;;;1.80;99.90;;;;;;5090049;28;20288;-92
2021/12/08 09:04:30;;;;;;;18.93;10.40;;;1.80;99.90;;;;;;5099478;28;20498;-92
2021/12/08 09:07:02;;;;;;;16.63;11.10;;;1.90;99.90;;;;;;5100385;28;20479;-93
2021/12/08 09:09:35;;;;;;;16.83;10.37;;;1.90;99.90;;;;;;5100327;28;20217;-93
2021/12/08 09:12:08;;;;;;;17.83;9.80;;;1.90;99.90;;;;;;5096616;28;20196;-94
2021/12/08 09:14:36;;;;;;;15.37;9.63;;;1.90;99.90;;;;;;5096592;28;20207;-93
2021/12/08 09:17:31;;;;;;;18.90;9.70;;;1.90;99.90;;;;;;5099609;28;20247;-90
2021/12/08 09:20:03;;;;;;;17.20;9.20;;;2.00;99.90;;;;;;5099865;28;20198;-89
2021/12/08 09:22:42;;;;;;;14.10;8.60;;;2.00;99.90;;;;;;5099227;28;20187;-91
2021/12/08 09:25:16;;;;;;;17.13;9.13;;;2.00;99.90;;;;;;5100229;28;20184;-92
2021/12/08 09:27:51;;;;;;;16.77;8.67;;;2.00;99.90;;;;;;5100467;28;20170;-91
2021/12/08 09:30:49;;;;;;;15.10;9.10;;;2.00;99.90;;;;;;5100289;28;20176;-90
2021/12/08 09:33:24;;;;;;;15.63;8.00;;;2.10;99.90;;;;;;5101619;28;20211;-92
2021/12/08 09:35:59;;;;;;;14.43;8.20;;;2.10;99.90;;;;;;5101418;28;20228;-91
2021/12/08 09:38:31;;;;;;;14.53;7.50;;;2.10;99.90;;;;;;5102466;28;20178;-91
2021/12/08 09:41:13;;;;;;;15.00;7.43;;;2.10;99.90;;;;;;5102257;28;20515;-91
2021/12/08 09:44:08;;;;;;;13.53;7.07;;;2.20;99.90;;;;;;5102150;28;20590;-90
2021/12/08 09:46:45;;;;;;;13.07;6.70;;;2.20;99.90;;;;;;5094076;28;20180;-91
2021/12/08 09:49:16;;;;;;;12.33;7.03;;;2.20;99.90;;;;;;5101978;28;20265;-91
2021/12/08 09:51:46;;;;;;;11.40;6.93;;;2.20;99.90;;;;;;5100901;28;20174;-91
2021/12/08 09:54:15;;;;;;;10.17;6.67;;;2.20;99.90;;;;;;5101315;28;20207;-91
2021/12/08 09:56:53;;;;;;;12.90;6.80;;;2.30;99.90;;;;;;5101071;28;20628;-91
2021/12/08 09:59:21;;;;;;;10.80;6.93;;;2.30;99.90;;;;;;5101960;28;20175;-91
2021/12/08 10:01:49;;;;;;;11.13;6.80;;;2.30;99.90;;;;;;5099563;28;20234;-90
2021/12/08 10:04:15;;;;;;;8.67;5.87;;;2.30;99.90;;;;;;5100224;28;20188;-91
2021/12/08 10:06:49;;;;;;;10.13;6.33;;;2.30;99.90;;;;;;5100694;28;20603;-89
2021/12/08 10:09:18;;;;;;;12.80;6.17;;;2.40;99.90;;;;;;5101591;28;20180;-90
2021/12/08 10:11:44;;;;;;;11.17;6.70;;;2.40;99.90;;;;;;5099815;28;20172;-91
2021/12/08 10:14:10;;;;;;;9.10;5.43;;;2.40;99.90;;;;;;5101305;28;20684;-91
2021/12/08 10:16:39;;;;;;;10.93;6.13;;;2.50;99.90;;;;;;5102645;28;20172;-92
2021/12/08 10:19:06;;;;;;;9.87;6.00;;;2.50;99.90;;;;;;5104358;28;20179;-92
2021/12/08 10:21:41;;;;;;;13.07;5.93;;;2.60;99.90;;;;;;5098974;28;20225;-91
2021/12/08 10:24:26;;;;;;;10.13;5.73;;;2.60;99.90;;;;;;5098810;28;20171;-90
2021/12/08 10:27:01;;;;;;;12.30;6.37;;;2.60;99.90;;;;;;5099566;28;20190;-90
2021/12/08 10:29:31;;;;;;;12.03;5.40;;;2.60;99.90;;;;;;5103470;28;20609;-91
2021/12/08 10:32:00;;;;;;;12.00;5.50;;;2.60;99.90;;;;;;5082831;28;20195;-90
2021/12/08 10:34:36;;;;;;;8.63;5.10;;;2.60;99.90;;;;;;5098227;28;20207;-89
2021/12/08 10:37:07;;;;;;;14.10;5.77;;;2.60;99.90;;;;;;5098350;28;20175;-89
2021/12/08 10:39:42;;;;;;;9.13;6.07;;;2.60;99.90;;;;;;5098909;28;20591;-91
2021/12/08 10:42:18;;;;;;;12.03;5.77;;;2.50;99.90;;;;;;5099528;28;20543;-91
2021/12/08 10:45:08;;;;;;;11.83;5.77;;;2.60;99.90;;;;;;5099153;28;20172;-92
2021/12/08 10:47:56;;;;;;;9.27;5.03;;;2.60;99.90;;;;;;5098246;28;20617;-92
2021/12/08 10:56:09;;;;;;;10.27;5.70;;;2.60;99.90;;;;;;5116912;28;20191;-94
2021/12/08 10:58:39;;;;;;;8.90;5.27;;;2.60;99.90;;;;;;5098315;28;20183;-92
2021/12/08 11:01:16;;;;;;;11.27;5.93;;;2.70;99.90;;;;;;5097829;28;20326;-92
2021/12/08 11:03:43;;;;;;;7.93;5.40;;;2.70;99.90;;;;;;5098041;28;20251;-93
2021/12/08 11:06:13;;;;;;;10.03;5.23;;;2.70;99.90;;;;;;5098228;27;20339;-92
2021/12/08 11:08:44;;;;;;;8.63;5.30;;;2.70;99.90;;;;;;5098239;28;20180;-93
2021/12/08 11:11:22;;;;;;;8.67;5.57;;;2.80;99.90;;;;;;5097769;28;20179;-94
2021/12/08 11:13:53;;;;;;;12.33;6.03;;;2.70;99.90;;;;;;5097909;28;20209;-93
2021/12/08 11:16:29;;;;;;;8.57;5.57;;;2.70;99.90;;;;;;5097931;28;20615;-92
2021/12/08 11:19:13;;;;;;;10.80;6.27;;;2.70;99.90;;;;;;5097951;28;20221;-92
2021/12/08 11:21:47;;;;;;;10.63;5.77;;;2.80;99.90;;;;;;5098663;28;20167;-92
2021/12/08 11:24:19;;;;;;;11.17;5.77;;;2.80;99.90;;;;;;5098516;28;20163;-92
2021/12/08 11:26:50;;;;;;;8.83;5.67;;;2.80;99.90;;;;;;5097712;28;20160;-91
2021/12/08 11:29:23;;;;;;;10.73;6.47;;;2.90;99.90;;;;;;5097760;28;20202;-92
2021/12/08 11:32:09;;;;;;;8.47;5.53;;;3.00;99.90;;;;;;5097752;28;20168;-92
2021/12/08 11:34:42;;;;;;;11.97;5.67;;;3.10;99.90;;;;;;5085835;28;20282;-94
2021/12/08 11:37:21;;;;;;;14.33;5.87;;;3.10;99.90;;;;;;5097907;28;20167;-92
2021/12/08 11:39:52;;;;;;;12.20;5.87;;;3.20;99.90;;;;;;5097828;28;20262;-93
2021/12/08 11:42:24;;;;;;;9.83;5.40;;;3.20;99.90;;;;;;5098059;28;20176;-94
2021/12/08 11:44:56;;;;;;;8.83;5.50;;;3.20;99.90;;;;;;5097540;28;20560;-91
2021/12/08 11:47:36;;;;;;;11.23;5.13;;;3.20;99.90;;;;;;5097448;28;20168;-92
2021/12/08 11:50:09;;;;;;;12.23;5.53;;;3.20;99.90;;;;;;5097630;28;20199;-91
2021/12/08 11:52:35;;;;;;;8.87;5.67;;;3.10;99.90;;;;;;5098414;28;20164;-91
2021/12/08 11:55:11;;;;;;;10.30;5.60;;;3.10;99.90;;;;;;5096805;28;20588;-92
2021/12/08 11:57:40;;;;;;;8.33;5.57;;;3.20;99.90;;;;;;5094991;28;20168;-88
2021/12/08 12:00:24;;;;;;;9.97;5.60;;;3.20;99.90;;;;;;5076887;28;20674;-89
2021/12/08 12:02:54;;;;;;;11.20;5.47;;;3.20;99.90;;;;;;5083547;28;20211;-90
2021/12/08 12:05:45;;;;;;;9.30;5.20;;;3.30;99.90;;;;;;5097325;28;20606;-88
2021/12/08 12:08:16;;;;;;;11.30;5.47;;;3.30;99.90;;;;;;5086247;28;20180;-89
2021/12/08 12:10:49;;;;;;;8.47;5.40;;;3.30;99.90;;;;;;5097270;28;20246;-88
2021/12/08 12:13:15;;;;;;;8.33;5.20;;;3.30;99.90;;;;;;5115201;28;20245;-89
2021/12/08 12:15:46;;;;;;;9.33;5.27;;;3.30;99.90;;;;;;5097229;28;20172;-89
2021/12/08 12:18:13;;;;;;;9.80;5.63;;;3.20;99.90;;;;;;5096833;28;20172;-89
2021/12/08 12:20:40;;;;;;;8.77;5.50;;;3.20;99.90;;;;;;5100887;28;20217;-89
2021/12/08 12:23:45;;;;;;;9.20;4.97;;;3.20;99.90;;;;;;5100496;28;20183;-90
2021/12/08 12:26:22;;;;;;;8.63;4.80;;;3.30;99.90;;;;;;5118761;28;20170;-89
2021/12/08 12:29:07;;;;;;;9.60;5.10;;;3.30;99.90;;;;;;5118929;28;20198;-90
2021/12/08 12:32:07;;;;;;;10.10;6.20;;;3.30;99.90;;;;;;5100739;28;20649;-90
2021/12/08 12:34:38;;;;;;;8.40;5.03;;;3.30;99.90;;;;;;5100588;28;20707;-91
2021/12/08 12:37:15;;;;;;;9.60;5.00;;;3.30;99.90;;;;;;5100250;28;20176;-90
2021/12/08 12:39:59;;;;;;;8.73;4.97;;;3.30;99.90;;;;;;5100727;28;20183;-90
2021/12/08 12:42:26;;;;;;;9.50;5.03;;;3.30;99.90;;;;;;5100714;28;20172;-92
2021/12/08 12:44:58;;;;;;;10.10;5.43;;;3.30;99.90;;;;;;5100796;28;20202;-91
2021/12/08 12:47:30;;;;;;;7.57;4.70;;;3.30;99.90;;;;;;5100649;28;20179;-90
2021/12/08 12:50:20;;;;;;;9.00;4.67;;;3.30;99.90;;;;;;5099895;28;20185;-90
2021/12/08 12:52:48;;;;;;;8.77;5.33;;;3.30;99.90;;;;;;5100651;28;20186;-91
2021/12/08 12:55:21;;;;;;;10.00;5.57;;;3.30;99.90;;;;;;5118599;28;20662;-90
2021/12/08 12:58:05;;;;;;;9.63;4.47;;;3.30;99.90;;;;;;5100399;28;20487;-91
2021/12/08 13:00:53;;;;;;;8.80;5.13;;;3.30;99.90;;;;;;5095575;28;20216;-91
2021/12/08 13:03:48;;;;;;;16.03;6.40;;;3.30;99.90;;;;;;5079915;28;20603;-91
2021/12/08 13:06:35;;;;;;;13.20;5.53;;;3.20;99.90;;;;;;5080288;28;20169;-90
2021/12/08 13:09:02;;;;;;;9.03;5.47;;;3.30;99.90;;;;;;5085827;28;20182;-89
2021/12/08 13:11:46;;;;;;;10.60;4.97;;;3.30;99.90;;;;;;5100244;28;20172;-91
2021/12/08 13:14:27;;;;;;;7.73;5.40;;;3.30;99.90;;;;;;5100178;28;20637;-92
2021/12/08 13:17:11;;;;;;;9.83;5.40;;;3.40;99.90;;;;;;5100097;28;20168;-90
2021/12/08 13:19:43;;;;;;;9.43;5.07;;;3.40;99.90;;;;;;5099322;28;20183;-92
2021/12/08 13:22:29;;;;;;;8.60;5.03;;;3.40;99.90;;;;;;5099909;28;20176;-92
2021/12/08 13:24:59;;;;;;;9.17;5.30;;;3.40;99.90;;;;;;5099746;28;20179;-92
2021/12/08 13:27:29;;;;;;;8.37;4.97;;;3.40;99.90;;;;;;5100373;28;20281;-90
2021/12/08 13:30:27;;;;;;;10.40;5.13;;;3.40;99.90;;;;;;5099343;28;20275;-92
2021/12/08 13:32:57;;;;;;;12.57;6.57;;;3.30;99.90;;;;;;5067446;28;20189;-91
2021/12/08 13:35:32;;;;;;;10.80;5.73;;;3.40;99.90;;;;;;5079093;28;20185;-91
2021/12/08 13:37:59;;;;;;;13.63;6.30;;;3.30;99.90;;;;;;5079568;28;20175;-91
2021/12/08 13:40:57;;;;;;;11.20;5.30;;;3.40;99.90;;;;;;5079323;28;20185;-91
2021/12/08 13:43:42;;;;;;;10.27;5.93;;;3.30;99.90;;;;;;5080175;28;20481;-91
2021/12/08 13:46:31;;;;;;;10.40;5.10;;;3.30;99.90;;;;;;5097841;28;20508;-92
2021/12/08 13:49:22;;;;;;;10.07;5.13;;;3.30;99.90;;;;;;5079790;28;20172;-93
2021/12/08 13:52:16;;;;;;;10.87;6.17;;;3.20;99.90;;;;;;5080553;28;20544;-92
2021/12/08 13:54:53;;;;;;;10.40;5.53;;;3.20;99.90;;;;;;5079762;28;20576;-93
2021/12/08 13:57:32;;;;;;;13.43;6.43;;;3.20;99.90;;;;;;5087338;28;20262;-91
2021/12/08 14:00:02;;;;;;;11.13;6.07;;;3.20;99.90;;;;;;5099166;28;20543;-92
2021/12/08 14:02:32;;;;;;;10.17;6.00;;;3.20;99.90;;;;;;5078920;28;20211;-93
2021/12/08 14:05:20;;;;;;;11.03;6.73;;;3.10;99.90;;;;;;5079415;28;20231;-91
2021/12/08 14:07:49;;;;;;;17.37;6.10;;;3.10;99.90;;;;;;5078846;28;20183;-94
2021/12/08 14:10:41;;;;;;;11.97;7.43;;;3.10;99.90;;;;;;5078818;28;20195;-96
2021/12/08 14:13:18;;;;;;;13.97;7.53;;;3.10;99.90;;;;;;5079213;28;20179;-95